Time;durP1;ratioP1;P1;durP2;ratioP2;P2;SDS_P1;SDS_P2;PMS_P1;PMS_P2;Temp;Humidity;BMP_temperature;BMP_pressure;BME280_temperature;BME280_humidity;BME280_pressure;Samples;Min_cycle;Max_cycle;Signal;HPM_P1;HPM_P2
2022/09/15 00:00:24;;;;;;;8.10;2.17;;;14.60;99.90;;;;;;3060194;19;20022;-77
2022/09/15 00:01:26;;;;;;;4.53;1.83;;;14.60;99.90;;;;;;3062069;19;20361;-78
2022/09/15 00:02:30;;;;;;;4.90;2.00;;;14.50;99.90;;;;;;3060614;19;20081;-77
2022/09/15 00:03:35;;;;;;;7.97;2.00;;;14.60;99.90;;;;;;3060843;19;20344;-77
2022/09/15 00:04:43;;;;;;;4.53;2.00;;;14.50;99.90;;;;;;3058316;19;20014;-77
2022/09/15 00:05:52;;;;;;;7.85;2.15;;;14.60;99.90;;;;;;3060845;19;20035;-77
2022/09/15 00:06:56;;;;;;;6.32;1.80;;;14.70;99.90;;;;;;3057292;19;20010;-77
2022/09/15 00:07:57;;;;;;;4.07;1.90;;;14.50;99.90;;;;;;3059113;19;20494;-77
2022/09/15 00:09:01;;;;;;;7.20;1.80;;;14.60;99.90;;;;;;3059914;19;20104;-78
2022/09/15 00:10:04;;;;;;;5.40;2.10;;;14.60;99.90;;;;;;3058890;19;20022;-77
2022/09/15 00:11:10;;;;;;;10.00;1.98;;;14.70;99.90;;;;;;3059570;19;20014;-77
2022/09/15 00:12:11;;;;;;;5.60;1.70;;;14.70;99.90;;;;;;3060470;19;20081;-77
2022/09/15 00:13:15;;;;;;;5.82;1.85;;;14.50;99.90;;;;;;3060218;19;20106;-78
2022/09/15 00:14:20;;;;;;;6.18;1.73;;;14.80;99.90;;;;;;3060654;19;20006;-78
2022/09/15 00:15:22;;;;;;;5.75;1.75;;;14.70;99.90;;;;;;3058176;19;20022;-79
2022/09/15 00:16:29;;;;;;;6.78;1.88;;;14.80;99.90;;;;;;3058614;19;20548;-78
2022/09/15 00:17:31;;;;;;;8.48;2.00;;;15.70;99.90;;;;;;3061777;19;20092;-78
2022/09/15 00:18:39;;;;;;;6.45;1.90;;;14.80;99.90;;;;;;3060760;19;20006;-77
2022/09/15 00:19:40;;;;;;;5.80;1.90;;;14.90;99.90;;;;;;3060495;19;20006;-77
2022/09/15 00:20:46;;;;;;;4.95;1.75;;;14.70;99.90;;;;;;3057183;19;20110;-77
2022/09/15 00:21:47;;;;;;;6.53;2.25;;;15.10;99.90;;;;;;3060072;19;20391;-77
2022/09/15 00:22:51;;;;;;;7.45;2.53;;;14.80;99.90;;;;;;3061234;19;20357;-77
2022/09/15 00:23:55;;;;;;;9.30;2.15;;;14.80;99.90;;;;;;3059480;19;20019;-76
2022/09/15 00:24:56;;;;;;;4.97;1.90;;;14.80;99.90;;;;;;3059951;19;20037;-77
2022/09/15 00:26:00;;;;;;;9.93;1.90;;;14.80;99.90;;;;;;3057613;19;20028;-78
2022/09/15 00:27:02;;;;;;;5.03;1.80;;;14.80;99.90;;;;;;3060373;19;20018;-77
2022/09/15 00:28:05;;;;;;;4.53;2.00;;;14.80;99.90;;;;;;3059663;19;20017;-78
2022/09/15 00:29:07;;;;;;;6.63;2.00;;;14.90;99.90;;;;;;3060283;19;20010;-78
2022/09/15 00:30:12;;;;;;;8.07;2.15;;;14.80;99.90;;;;;;3059241;19;20069;-78
2022/09/15 00:31:15;;;;;;;7.68;1.90;;;14.70;99.90;;;;;;3061821;19;20029;-78
2022/09/15 00:32:19;;;;;;;4.35;1.65;;;14.80;99.90;;;;;;3060735;19;20015;-78
2022/09/15 00:33:22;;;;;;;6.75;1.98;;;14.80;99.90;;;;;;3060168;19;20105;-78
2022/09/15 00:34:28;;;;;;;5.78;2.00;;;14.80;99.90;;;;;;3060684;19;20019;-78
2022/09/15 00:35:29;;;;;;;6.53;1.88;;;14.70;99.90;;;;;;3060098;19;20070;-77
2022/09/15 00:36:34;;;;;;;8.40;2.00;;;14.80;99.90;;;;;;3059675;19;19999;-78
2022/09/15 00:37:35;;;;;;;8.13;2.10;;;14.90;99.90;;;;;;3059907;19;20018;-78
2022/09/15 00:38:39;;;;;;;4.78;1.70;;;14.80;99.90;;;;;;3059001;19;20014;-78
2022/09/15 00:39:41;;;;;;;5.95;2.17;;;14.80;99.90;;;;;;3060488;19;20028;-78
2022/09/15 00:40:47;;;;;;;5.85;1.95;;;14.80;99.90;;;;;;3060339;19;20026;-78
2022/09/15 00:41:48;;;;;;;5.40;1.80;;;14.80;99.90;;;;;;3059984;19;20498;-77
2022/09/15 00:42:52;;;;;;;5.90;1.70;;;15.80;99.90;;;;;;3058909;19;20015;-78
2022/09/15 00:43:55;;;;;;;6.30;1.58;;;14.60;99.90;;;;;;3060049;19;20097;-78
2022/09/15 00:45:02;;;;;;;6.70;1.92;;;14.70;99.90;;;;;;3059781;19;20427;-78
2022/09/15 00:46:03;;;;;;;6.50;1.90;;;14.80;99.90;;;;;;3060123;19;20439;-77
2022/09/15 00:47:08;;;;;;;7.32;2.30;;;14.70;99.90;;;;;;3060408;19;20022;-78
2022/09/15 00:48:13;;;;;;;4.95;2.17;;;14.60;99.90;;;;;;3058226;19;20044;-77
2022/09/15 00:49:21;;;;;;;3.80;1.88;;;14.80;99.90;;;;;;3060076;19;20007;-78
2022/09/15 00:50:28;;;;;;;4.90;2.10;;;14.70;99.90;;;;;;3059609;19;20011;-77
2022/09/15 00:51:40;;;;;;;4.40;1.80;;;14.60;99.90;;;;;;3059085;19;20015;-77
2022/09/15 00:52:47;;;;;;;4.60;1.75;;;14.50;99.90;;;;;;3058530;19;20022;-78
2022/09/15 00:53:50;;;;;;;9.32;2.33;;;14.70;99.90;;;;;;3061677;19;20019;-77
2022/09/15 00:54:59;;;;;;;4.65;1.98;;;15.40;99.90;;;;;;3058571;19;20011;-78
2022/09/15 00:56:02;;;;;;;4.13;1.55;;;14.60;99.90;;;;;;3060067;19;20368;-77
2022/09/15 00:57:13;;;;;;;4.15;1.70;;;14.40;99.90;;;;;;3060295;19;20014;-77
2022/09/15 00:58:17;;;;;;;6.43;1.80;;;14.90;99.90;;;;;;3059203;19;20014;-78
2022/09/15 00:59:25;;;;;;;6.13;1.70;;;14.70;99.90;;;;;;3059008;19;20005;-77
2022/09/15 01:00:28;;;;;;;4.70;1.60;;;14.80;99.90;;;;;;3060975;19;20372;-77
2022/09/15 01:01:33;;;;;;;6.75;1.73;;;14.70;99.90;;;;;;3059726;19;20010;-77
2022/09/15 01:02:36;;;;;;;4.45;1.70;;;14.60;99.90;;;;;;3060178;19;20375;-79
2022/09/15 01:03:41;;;;;;;5.47;1.75;;;14.70;99.90;;;;;;3059012;19;20345;-77
2022/09/15 01:04:42;;;;;;;6.47;1.60;;;14.70;99.90;;;;;;3060382;19;20006;-78
2022/09/15 01:05:54;;;;;;;7.05;2.10;;;14.80;99.90;;;;;;3060334;19;20018;-77
2022/09/15 01:06:57;;;;;;;;;;;14.80;99.90;;;;;;3059843;19;20027;-77
2022/09/15 01:08:03;;;;;;;3.55;1.75;;;14.80;99.90;;;;;;3059188;19;19919;-77
2022/09/15 01:09:13;;;;;;;9.63;1.90;;;14.60;99.90;;;;;;3059714;19;20017;-76
2022/09/15 01:10:21;;;;;;;4.60;1.58;;;14.80;99.90;;;;;;3060520;19;20467;-77
2022/09/15 01:11:22;;;;;;;5.65;1.63;;;14.90;99.90;;;;;;3058854;19;20078;-77
2022/09/15 01:12:27;;;;;;;4.55;1.98;;;14.70;99.90;;;;;;3060533;19;20025;-76
2022/09/15 01:13:28;;;;;;;6.28;2.15;;;14.70;99.90;;;;;;3059405;19;20022;-78
2022/09/15 01:14:32;;;;;;;5.07;1.98;;;14.50;99.90;;;;;;3060197;19;20359;-77
2022/09/15 01:15:53;;;;;;;4.97;2.47;;;14.70;99.90;;;;;;3055907;19;20014;-78
2022/09/15 01:17:02;;;;;;;10.90;2.33;;;14.60;99.90;;;;;;3057825;19;20015;-77
2022/09/15 01:18:12;;;;;;;3.45;1.80;;;14.60;99.90;;;;;;3058937;19;20045;-77
2022/09/15 01:19:58;;;;;;;6.30;2.38;;;14.50;99.90;;;;;;3055978;19;20014;-77
2022/09/15 01:21:20;;;;;;;5.43;1.98;;;14.60;99.90;;;;;;3057764;19;20007;-77
2022/09/15 01:22:37;;;;;;;7.43;2.22;;;14.50;99.90;;;;;;3059364;19;20002;-77
2022/09/15 01:24:28;;;;;;;5.18;2.20;;;14.50;99.90;;;;;;3059339;19;20078;-77
2022/09/15 01:26:01;;;;;;;6.60;2.08;;;14.60;99.90;;;;;;3059354;19;20014;-77
2022/09/15 01:27:32;;;;;;;5.85;2.47;;;14.60;99.90;;;;;;3059487;19;20361;-77
2022/09/15 01:29:05;;;;;;;4.75;2.00;;;14.40;99.90;;;;;;3054293;19;20454;-78
2022/09/15 01:30:16;;;;;;;3.25;1.90;;;14.30;99.90;;;;;;3057690;19;20010;-78
2022/09/15 01:31:24;;;;;;;7.15;2.20;;;14.40;99.90;;;;;;3060138;19;20032;-77
2022/09/15 01:33:54;;;;;;;7.72;2.20;;;14.40;99.90;;;;;;3058280;19;20019;-78
2022/09/15 01:35:01;;;;;;;8.05;2.10;;;14.50;99.90;;;;;;3059231;19;20022;-77
2022/09/15 01:36:10;;;;;;;5.07;1.70;;;14.40;99.90;;;;;;3058563;19;20491;-78
2022/09/15 01:37:21;;;;;;;5.95;1.70;;;14.50;99.90;;;;;;3059657;19;20411;-77
2022/09/15 01:38:48;;;;;;;6.70;1.73;;;14.40;99.90;;;;;;3057791;19;20672;-78
2022/09/15 01:39:51;;;;;;;5.15;1.88;;;15.00;99.90;;;;;;3058443;19;19998;-78
2022/09/15 01:41:01;;;;;;;6.85;1.67;;;14.50;99.90;;;;;;3056870;19;20443;-78
2022/09/15 01:42:07;;;;;;;5.18;1.67;;;14.40;99.90;;;;;;3057254;19;20022;-78
2022/09/15 01:43:13;;;;;;;6.43;1.75;;;14.30;99.90;;;;;;3061180;19;20086;-77
2022/09/15 01:44:20;;;;;;;5.47;1.70;;;15.10;99.90;;;;;;3059137;19;20018;-77
2022/09/15 01:45:30;;;;;;;4.80;1.70;;;14.50;99.90;;;;;;3059692;19;20022;-77
2022/09/15 01:46:39;;;;;;;7.22;1.80;;;14.50;99.90;;;;;;3059151;19;20025;-77
2022/09/15 01:47:41;;;;;;;4.65;2.05;;;14.60;99.90;;;;;;3059287;19;20014;-77
2022/09/15 01:48:45;;;;;;;6.25;1.58;;;14.50;99.90;;;;;;3058996;19;20017;-77
2022/09/15 01:49:50;;;;;;;4.97;1.63;;;14.50;99.90;;;;;;3058458;19;20030;-77
2022/09/15 01:50:57;;;;;;;5.95;1.85;;;14.60;99.90;;;;;;3057941;19;20014;-76
2022/09/15 01:51:59;;;;;;;6.30;1.85;;;14.60;99.90;;;;;;3058484;19;20030;-77
2022/09/15 01:53:05;;;;;;;6.82;1.70;;;14.50;99.90;;;;;;3058775;19;20501;-77
2022/09/15 01:54:10;;;;;;;6.45;1.80;;;14.70;99.90;;;;;;3059038;19;20104;-77
2022/09/15 01:55:15;;;;;;;5.45;1.60;;;14.60;99.90;;;;;;3057952;19;20367;-78
2022/09/15 01:56:19;;;;;;;8.45;1.90;;;14.50;99.90;;;;;;3059835;19;20015;-78
2022/09/15 01:57:21;;;;;;;5.05;1.80;;;14.50;99.90;;;;;;3059742;19;20365;-78
2022/09/15 01:58:25;;;;;;;;;;;15.60;99.90;;;;;;3059890;19;20014;-77
2022/09/15 01:59:26;;;;;;;4.60;1.70;;;14.60;99.90;;;;;;3059202;19;20463;-77
2022/09/15 02:00:37;;;;;;;3.28;1.50;;;14.60;99.90;;;;;;3059640;19;20014;-77
2022/09/15 02:01:48;;;;;;;7.13;1.60;;;14.50;99.90;;;;;;3057394;19;20054;-78
2022/09/15 02:02:57;;;;;;;4.88;1.45;;;14.80;99.90;;;;;;3058829;19;20021;-78
2022/09/15 02:04:04;;;;;;;5.63;1.77;;;14.80;99.90;;;;;;3058739;19;20398;-77
2022/09/15 02:05:15;;;;;;;5.78;1.65;;;14.60;99.90;;;;;;3059569;19;20476;-78
2022/09/15 02:06:23;;;;;;;4.03;1.85;;;14.60;99.90;;;;;;3058350;19;20478;-77
2022/09/15 02:07:34;;;;;;;5.68;1.50;;;14.50;99.90;;;;;;3058038;19;20026;-77
2022/09/15 02:08:41;;;;;;;9.75;2.22;;;14.70;99.90;;;;;;3058946;19;20010;-77
2022/09/15 02:09:53;;;;;;;6.68;1.48;;;14.60;99.90;;;;;;3058006;19;20380;-78
2022/09/15 02:11:03;;;;;;;6.85;1.70;;;14.60;99.90;;;;;;3058655;19;20018;-77
2022/09/15 02:12:16;;;;;;;8.50;1.83;;;14.70;99.90;;;;;;3057910;19;20029;-77
2022/09/15 02:13:24;;;;;;;3.75;1.58;;;14.70;99.90;;;;;;3058925;19;20490;-77
2022/09/15 02:14:42;;;;;;;4.63;1.42;;;14.70;99.90;;;;;;3056074;19;20018;-78
2022/09/15 02:15:50;;;;;;;5.28;1.70;;;14.60;99.90;;;;;;3058552;19;20014;-77
2022/09/15 02:16:56;;;;;;;7.60;1.85;;;14.70;99.90;;;;;;3059110;19;20048;-78
2022/09/15 02:18:00;;;;;;;4.15;1.38;;;14.60;99.90;;;;;;3056915;19;20018;-78
2022/09/15 02:19:13;;;;;;;7.65;1.70;;;14.60;99.90;;;;;;3058008;19;20029;-78
2022/09/15 02:20:25;;;;;;;8.13;1.60;;;14.70;99.90;;;;;;3058575;19;20018;-78
2022/09/15 02:21:35;;;;;;;11.25;1.80;;;14.70;99.90;;;;;;3057885;19;20018;-78
2022/09/15 02:22:39;;;;;;;4.82;1.50;;;14.90;99.90;;;;;;3058653;19;20440;-78
2022/09/15 02:23:49;;;;;;;9.73;2.00;;;14.60;99.90;;;;;;3058671;19;20492;-78
2022/09/15 02:24:56;;;;;;;5.15;1.23;;;14.70;99.90;;;;;;3057854;19;20014;-77
2022/09/15 02:26:04;;;;;;;5.43;1.55;;;15.70;99.90;;;;;;3058184;19;20014;-78
2022/09/15 02:27:09;;;;;;;5.97;1.60;;;14.80;99.90;;;;;;3058107;19;20002;-78
2022/09/15 02:28:16;;;;;;;7.25;1.40;;;14.60;99.90;;;;;;3056656;19;20010;-79
2022/09/15 02:29:20;;;;;;;5.13;1.95;;;14.50;99.90;;;;;;3057248;19;20022;-78
2022/09/15 02:30:24;;;;;;;7.78;1.77;;;14.70;99.90;;;;;;3058607;19;20018;-79
2022/09/15 02:31:31;;;;;;;7.00;1.70;;;14.60;99.90;;;;;;3061273;19;20021;-78
2022/09/15 02:32:39;;;;;;;11.68;1.83;;;14.70;99.90;;;;;;3055357;19;22068;-78
2022/09/15 02:33:45;;;;;;;4.50;1.40;;;14.50;99.90;;;;;;3058748;19;20066;-78
2022/09/15 02:34:52;;;;;;;5.65;1.67;;;14.60;99.90;;;;;;3058333;19;20018;-78
2022/09/15 02:35:53;;;;;;;7.07;1.70;;;14.50;99.90;;;;;;3058834;19;20006;-78
2022/09/15 02:36:58;;;;;;;3.60;1.48;;;14.70;99.90;;;;;;3056658;19;20019;-78
2022/09/15 02:38:00;;;;;;;8.07;1.60;;;14.60;99.90;;;;;;3059391;19;20014;-78
2022/09/15 02:39:07;;;;;;;7.43;1.55;;;14.70;99.90;;;;;;3058812;19;20016;-77
2022/09/15 02:40:09;;;;;;;5.13;1.20;;;14.60;99.90;;;;;;3058319;19;20014;-78
2022/09/15 02:41:13;;;;;;;7.00;1.55;;;14.60;99.90;;;;;;3058581;19;20019;-77
2022/09/15 02:42:23;;;;;;;4.95;1.30;;;14.60;99.90;;;;;;3058404;19;20070;-77
2022/09/15 02:43:28;;;;;;;6.50;1.48;;;14.50;99.90;;;;;;3059376;19;20082;-78
2022/09/15 02:44:30;;;;;;;6.57;1.55;;;14.60;99.90;;;;;;3058665;19;20028;-78
2022/09/15 02:45:34;;;;;;;5.53;1.23;;;14.60;99.90;;;;;;3058293;19;20021;-79
2022/09/15 02:46:39;;;;;;;3.67;1.15;;;14.50;99.90;;;;;;3057611;19;20018;-79
2022/09/15 02:47:43;;;;;;;5.13;1.42;;;14.40;99.90;;;;;;3058120;19;20007;-79
2022/09/15 02:48:45;;;;;;;5.45;1.20;;;14.30;99.90;;;;;;3055253;19;20023;-78
2022/09/15 02:49:49;;;;;;;4.38;1.10;;;14.40;99.90;;;;;;3053517;19;20019;-78
2022/09/15 02:50:50;;;;;;;4.22;1.10;;;14.20;99.90;;;;;;3055489;19;20030;-78
2022/09/15 02:51:54;;;;;;;6.63;0.93;;;14.30;99.90;;;;;;3054887;19;20435;-78
2022/09/15 02:52:56;;;;;;;5.93;1.20;;;14.20;99.90;;;;;;3055997;19;20014;-78
2022/09/15 02:54:00;;;;;;;6.15;1.15;;;14.20;99.90;;;;;;3056455;19;20014;-78
2022/09/15 02:55:01;;;;;;;6.00;1.13;;;14.30;99.90;;;;;;3055610;19;20037;-78
2022/09/15 02:56:06;;;;;;;8.52;1.27;;;14.90;99.90;;;;;;3054891;19;20074;-78
2022/09/15 02:57:08;;;;;;;6.95;1.35;;;14.00;99.90;;;;;;3055647;19;20025;-77
2022/09/15 02:58:11;;;;;;;;;;;14.10;99.90;;;;;;3059507;19;20014;-78
2022/09/15 02:59:13;;;;;;;7.20;1.50;;;14.10;99.90;;;;;;3055597;19;19930;-77
2022/09/15 03:00:18;;;;;;;8.10;1.40;;;14.10;99.90;;;;;;3056267;19;20014;-78
2022/09/15 03:01:31;;;;;;;7.63;1.33;;;13.90;99.90;;;;;;3055161;19;20408;-78
2022/09/15 03:02:38;;;;;;;3.55;1.10;;;14.00;99.90;;;;;;3056440;19;20379;-78
2022/09/15 03:03:39;;;;;;;4.20;1.30;;;14.20;99.90;;;;;;3055120;19;20015;-78
2022/09/15 03:04:44;;;;;;;8.20;1.40;;;13.90;99.90;;;;;;3056131;19;20018;-78
2022/09/15 03:05:45;;;;;;;7.82;1.38;;;14.20;99.90;;;;;;3055232;19;20019;-78
2022/09/15 03:06:49;;;;;;;6.15;1.30;;;14.10;99.90;;;;;;3054989;19;20021;-78
2022/09/15 03:07:51;;;;;;;4.88;1.40;;;14.00;99.90;;;;;;3054799;19;20037;-78
2022/09/15 03:08:57;;;;;;;5.57;1.27;;;13.90;99.90;;;;;;3055035;19;20027;-78
2022/09/15 03:09:58;;;;;;;7.57;1.25;;;13.90;99.90;;;;;;3054785;19;20015;-78
2022/09/15 03:11:02;;;;;;;8.57;1.35;;;14.10;99.90;;;;;;3054707;19;20045;-78
2022/09/15 03:12:05;;;;;;;3.85;1.38;;;14.00;99.90;;;;;;3054507;19;20031;-78
2022/09/15 03:13:09;;;;;;;5.55;1.80;;;13.90;99.90;;;;;;3055037;19;20355;-78
2022/09/15 03:14:10;;;;;;;5.75;0.98;;;14.10;99.90;;;;;;3054658;19;20037;-77
2022/09/15 03:15:16;;;;;;;4.03;1.70;;;14.00;99.90;;;;;;3055307;19;20018;-78
2022/09/15 03:16:18;;;;;;;6.40;1.25;;;14.00;99.90;;;;;;3054884;19;20018;-78
2022/09/15 03:17:21;;;;;;;7.38;1.55;;;14.00;99.90;;;;;;3054607;19;20490;-77
2022/09/15 03:18:26;;;;;;;8.77;1.45;;;14.10;99.90;;;;;;3055936;19;20022;-77
2022/09/15 03:19:30;;;;;;;6.20;1.20;;;14.00;99.90;;;;;;3054350;19;20018;-78
2022/09/15 03:20:31;;;;;;;6.38;1.38;;;14.10;99.90;;;;;;3055658;19;20478;-76
2022/09/15 03:21:36;;;;;;;7.15;1.23;;;14.10;99.90;;;;;;3054603;19;20032;-77
2022/09/15 03:22:38;;;;;;;6.13;1.40;;;14.10;99.90;;;;;;3054936;19;20022;-77
2022/09/15 03:23:42;;;;;;;8.55;1.42;;;14.00;99.90;;;;;;3054758;19;20018;-77
2022/09/15 03:24:45;;;;;;;6.53;1.30;;;14.00;99.90;;;;;;3054224;19;20025;-77
2022/09/15 03:25:48;;;;;;;7.05;1.48;;;13.90;99.90;;;;;;3055200;19;20025;-77
2022/09/15 03:26:50;;;;;;;4.50;1.40;;;13.90;99.90;;;;;;3055296;19;20015;-77
2022/09/15 03:27:54;;;;;;;8.23;1.70;;;14.10;99.90;;;;;;3055146;19;20015;-79
2022/09/15 03:28:55;;;;;;;6.15;1.20;;;13.70;99.90;;;;;;3054561;19;20357;-78
2022/09/15 03:29:59;;;;;;;3.88;1.05;;;14.00;99.90;;;;;;3059195;19;20422;-77
2022/09/15 03:31:01;;;;;;;6.45;1.25;;;13.90;99.90;;;;;;3057712;19;20495;-77
2022/09/15 03:32:05;;;;;;;6.72;1.60;;;13.90;99.90;;;;;;3058060;19;20011;-78
2022/09/15 03:33:06;;;;;;;8.32;1.20;;;13.70;99.90;;;;;;3057904;19;20483;-78
2022/09/15 03:34:12;;;;;;;6.47;1.40;;;13.90;99.90;;;;;;3058151;19;20014;-77
2022/09/15 03:35:14;;;;;;;6.80;1.40;;;13.80;99.90;;;;;;3057934;19;20351;-77
2022/09/15 03:36:18;;;;;;;5.55;1.55;;;13.90;99.90;;;;;;3058055;19;20505;-77
2022/09/15 03:37:19;;;;;;;3.53;1.10;;;14.20;99.90;;;;;;3057665;19;20014;-77
2022/09/15 03:38:23;;;;;;;8.85;1.30;;;13.90;99.90;;;;;;3058091;19;20014;-78
2022/09/15 03:39:25;;;;;;;5.22;1.30;;;15.10;99.90;;;;;;3057743;19;20120;-78
2022/09/15 03:40:29;;;;;;;6.47;1.55;;;13.80;99.90;;;;;;3057787;19;20037;-78
2022/09/15 03:41:30;;;;;;;9.07;1.65;;;14.00;99.90;;;;;;3058713;19;20031;-78
2022/09/15 03:42:34;;;;;;;6.70;1.83;;;13.80;99.90;;;;;;3058121;19;20006;-78
2022/09/15 03:43:36;;;;;;;5.30;1.60;;;14.50;99.90;;;;;;3057589;19;20018;-77
2022/09/15 03:44:40;;;;;;;8.65;1.20;;;14.10;99.90;;;;;;3057947;19;20006;-77
2022/09/15 03:45:41;;;;;;;5.18;1.17;;;13.90;99.90;;;;;;3056660;19;20019;-77
2022/09/15 03:46:45;;;;;;;4.85;1.05;;;14.00;99.90;;;;;;3057431;19;20028;-78
2022/09/15 03:47:46;;;;;;;9.45;1.48;;;13.90;99.90;;;;;;3058386;19;20137;-77
2022/09/15 03:48:50;;;;;;;4.32;1.35;;;14.00;99.90;;;;;;3057829;19;20011;-77
2022/09/15 03:49:54;;;;;;;8.73;1.58;;;14.00;99.90;;;;;;3056582;19;20018;-78
2022/09/15 03:50:58;;;;;;;6.13;1.20;;;14.10;99.90;;;;;;3057603;19;20114;-78
2022/09/15 03:52:00;;;;;;;9.40;1.65;;;13.70;99.90;;;;;;3057579;19;20333;-78
2022/09/15 03:53:04;;;;;;;6.18;1.30;;;14.10;99.90;;;;;;3059474;19;20031;-79
2022/09/15 03:54:05;;;;;;;5.80;1.50;;;14.20;99.90;;;;;;3058192;19;20011;-79
2022/09/15 03:55:10;;;;;;;5.25;1.35;;;14.00;99.90;;;;;;3057537;19;20014;-79
2022/09/15 03:56:18;;;;;;;5.20;1.50;;;14.00;99.90;;;;;;3057477;19;20029;-79
2022/09/15 03:57:21;;;;;;;5.63;1.67;;;13.90;99.90;;;;;;3057739;19;20017;-79
2022/09/15 03:58:26;;;;;;;6.13;1.50;;;14.70;99.90;;;;;;3058384;19;20018;-79
2022/09/15 03:59:30;;;;;;;5.30;1.15;;;15.20;99.90;;;;;;3057048;19;20010;-78
2022/09/15 04:00:31;;;;;;;5.53;1.55;;;14.10;99.90;;;;;;3054523;19;20018;-79
2022/09/15 04:01:35;;;;;;;6.72;1.38;;;14.10;99.90;;;;;;3058222;19;20022;-78
2022/09/15 04:02:37;;;;;;;6.05;1.38;;;14.10;99.90;;;;;;3057952;19;20030;-79
2022/09/15 04:03:41;;;;;;;4.10;1.23;;;14.20;99.90;;;;;;3057319;19;20018;-79
2022/09/15 04:04:43;;;;;;;10.77;1.58;;;14.00;99.90;;;;;;3057166;19;20014;-79
2022/09/15 04:05:49;;;;;;;4.50;1.10;;;13.90;99.90;;;;;;3057793;19;20014;-79
2022/09/15 04:06:50;;;;;;;5.00;1.40;;;14.00;99.90;;;;;;3057954;19;20510;-79
2022/09/15 04:07:54;;;;;;;6.72;1.30;;;14.10;99.90;;;;;;3056935;19;20021;-78
2022/09/15 04:08:58;;;;;;;7.35;1.20;;;14.20;99.90;;;;;;3057271;19;20501;-79
2022/09/15 04:10:03;;;;;;;6.70;1.52;;;14.50;99.90;;;;;;3056390;19;20041;-79
2022/09/15 04:11:05;;;;;;;4.78;1.13;;;13.90;99.90;;;;;;3056674;19;20026;-78
2022/09/15 04:12:09;;;;;;;6.15;1.38;;;14.20;99.90;;;;;;3057066;19;20037;-78
2022/09/15 04:13:11;;;;;;;9.10;1.80;;;13.90;99.90;;;;;;3058604;19;20025;-80
2022/09/15 04:14:15;;;;;;;7.40;1.70;;;13.80;99.90;;;;;;3059289;19;20093;-79
2022/09/15 04:15:16;;;;;;;6.97;1.27;;;15.30;99.90;;;;;;3060431;19;20015;-79
2022/09/15 04:16:23;;;;;;;6.97;1.50;;;14.10;99.90;;;;;;3061930;19;20010;-73
2022/09/15 04:17:25;;;;;;;9.77;1.50;;;13.90;99.90;;;;;;3060040;19;20026;-75
2022/09/15 04:18:29;;;;;;;6.63;1.40;;;14.10;99.90;;;;;;3060426;19;20014;-81
2022/09/15 04:19:30;;;;;;;4.07;0.98;;;14.10;99.90;;;;;;3060837;19;20014;-78
2022/09/15 04:20:34;;;;;;;5.70;1.40;;;14.10;99.90;;;;;;3059842;19;20019;-77
2022/09/15 04:21:38;;;;;;;4.70;1.17;;;14.20;99.90;;;;;;3058768;19;20360;-77
2022/09/15 04:22:42;;;;;;;5.20;1.17;;;13.90;99.90;;;;;;3056117;19;20022;-77
2022/09/15 04:23:43;;;;;;;7.00;1.42;;;14.00;99.90;;;;;;3058635;19;20361;-77
2022/09/15 04:24:47;;;;;;;4.72;1.08;;;14.00;99.90;;;;;;3059682;19;20003;-77
2022/09/15 04:25:55;;;;;;;6.13;1.30;;;14.00;99.90;;;;;;3057037;19;20018;-74
2022/09/15 04:27:00;;;;;;;9.32;1.65;;;13.80;99.90;;;;;;3061740;19;20688;-74
2022/09/15 04:28:05;;;;;;;5.95;1.63;;;13.90;99.90;;;;;;3060217;19;20344;-80
2022/09/15 04:29:13;;;;;;;;;;;14.00;99.90;;;;;;3059207;19;20470;-79
2022/09/15 04:30:15;;;;;;;7.13;1.63;;;13.90;99.90;;;;;;3057325;19;19919;-77
2022/09/15 04:31:19;;;;;;;;;;;14.00;99.90;;;;;;3058933;19;20014;-80
2022/09/15 04:32:21;;;;;;;4.97;1.42;;;13.90;99.90;;;;;;3058000;19;19945;-80
2022/09/15 04:33:25;;;;;;;6.20;1.40;;;13.70;99.90;;;;;;3059833;19;20019;-78
2022/09/15 04:34:28;;;;;;;9.57;1.42;;;13.70;99.90;;;;;;3058515;19;20010;-78
2022/09/15 04:35:32;;;;;;;5.25;1.20;;;13.90;99.90;;;;;;3060634;19;20010;-77
2022/09/15 04:36:37;;;;;;;5.60;1.25;;;13.80;99.90;;;;;;3060366;19;20015;-77
2022/09/15 04:37:41;;;;;;;7.30;1.15;;;14.30;99.90;;;;;;3060165;19;20037;-76
2022/09/15 04:38:43;;;;;;;5.07;1.40;;;14.80;99.90;;;;;;3060905;19;20427;-79
2022/09/15 04:39:48;;;;;;;10.95;1.65;;;13.80;99.90;;;;;;3060001;19;20026;-75
2022/09/15 04:40:50;;;;;;;9.85;1.52;;;13.80;99.90;;;;;;3060301;19;20015;-75
2022/09/15 04:41:54;;;;;;;5.53;1.55;;;13.90;99.90;;;;;;3060031;19;20482;-76
2022/09/15 04:42:56;;;;;;;3.85;1.35;;;13.70;99.90;;;;;;3060229;19;20010;-74
2022/09/15 04:43:59;;;;;;;6.10;1.73;;;13.80;99.90;;;;;;3060445;19;20019;-76
2022/09/15 04:45:01;;;;;;;9.90;1.60;;;15.20;99.90;;;;;;3060113;19;20006;-75
2022/09/15 04:46:05;;;;;;;;;;;13.70;99.90;;;;;;3060453;19;20379;-74
2022/09/15 04:47:07;;;;;;;7.35;1.27;;;13.60;99.90;;;;;;3059580;19;19934;-75
2022/09/15 04:48:11;;;;;;;8.23;1.63;;;13.70;99.90;;;;;;3059248;19;20022;-73
2022/09/15 04:49:13;;;;;;;7.70;1.65;;;14.70;99.90;;;;;;3061489;19;20018;-75
2022/09/15 04:50:17;;;;;;;;;;;13.70;99.90;;;;;;3059411;19;20063;-75
2022/09/15 04:51:21;;;;;;;7.18;1.83;;;13.80;99.90;;;;;;3059970;19;19946;-76
2022/09/15 04:52:27;;;;;;;9.18;1.50;;;13.70;99.90;;;;;;3059343;19;20014;-74
2022/09/15 04:53:29;;;;;;;10.95;1.67;;;13.60;99.90;;;;;;3058719;19;20018;-76
2022/09/15 04:54:35;;;;;;;7.40;1.77;;;13.70;99.90;;;;;;3056310;19;20017;-78
2022/09/15 04:55:36;;;;;;;9.98;1.65;;;13.70;99.90;;;;;;3061734;19;20015;-77
2022/09/15 04:56:40;;;;;;;7.45;1.67;;;13.80;99.90;;;;;;3060726;19;20408;-77
2022/09/15 04:57:42;;;;;;;8.68;1.73;;;13.80;99.90;;;;;;3059794;19;20013;-76
2022/09/15 04:58:47;;;;;;;6.22;1.63;;;13.80;99.90;;;;;;3059746;19;20026;-75
2022/09/15 04:59:49;;;;;;;8.60;1.42;;;13.70;99.90;;;;;;3059927;19;20006;-75
2022/09/15 05:00:52;;;;;;;9.45;2.00;;;13.70;99.90;;;;;;3060868;19;20010;-75
2022/09/15 05:01:54;;;;;;;8.43;1.52;;;13.80;99.90;;;;;;3059911;19;20490;-75
2022/09/15 05:02:58;;;;;;;;;;;13.80;99.90;;;;;;3060518;19;20011;-77
2022/09/15 05:04:02;;;;;;;8.18;1.50;;;13.70;99.90;;;;;;3059735;19;19919;-77
2022/09/15 05:05:08;;;;;;;10.43;2.03;;;13.70;99.90;;;;;;3059548;19;20094;-77
2022/09/15 05:06:13;;;;;;;12.70;1.70;;;13.60;99.90;;;;;;3058874;19;20014;-77
2022/09/15 05:07:17;;;;;;;11.73;2.35;;;13.60;99.90;;;;;;3059575;19;20065;-76
2022/09/15 05:08:21;;;;;;;6.88;1.75;;;13.80;99.90;;;;;;3059534;19;20017;-76
2022/09/15 05:09:26;;;;;;;7.97;1.60;;;13.70;99.90;;;;;;3059777;19;20006;-75
2022/09/15 05:10:28;;;;;;;9.90;1.65;;;13.60;99.90;;;;;;3059677;19;20391;-75
2022/09/15 05:11:32;;;;;;;8.77;1.58;;;13.60;99.90;;;;;;3058189;19;20018;-74
2022/09/15 05:12:33;;;;;;;8.20;1.80;;;13.50;99.90;;;;;;3058281;19;20490;-75
2022/09/15 05:13:38;;;;;;;7.22;1.55;;;13.80;99.90;;;;;;3058936;19;20015;-74
2022/09/15 05:14:42;;;;;;;8.10;1.60;;;13.80;99.90;;;;;;3059772;19;20006;-76
2022/09/15 05:15:43;;;;;;;8.75;1.33;;;13.60;99.90;;;;;;3059540;19;19999;-76
2022/09/15 05:16:47;;;;;;;6.35;1.55;;;13.50;99.90;;;;;;3059569;19;20518;-76
2022/09/15 05:17:48;;;;;;;5.75;1.70;;;13.60;99.90;;;;;;3059543;19;20002;-76
2022/09/15 05:18:54;;;;;;;8.57;1.58;;;13.70;99.90;;;;;;3059399;19;20006;-75
2022/09/15 05:19:56;;;;;;;7.57;2.08;;;13.70;99.90;;;;;;3059333;19;20010;-75
2022/09/15 05:21:01;;;;;;;7.20;1.30;;;13.60;99.90;;;;;;3057976;19;20038;-74
2022/09/15 05:22:05;;;;;;;4.45;1.25;;;13.70;99.90;;;;;;3059423;19;20006;-76
2022/09/15 05:23:06;;;;;;;7.13;1.40;;;13.60;99.90;;;;;;3059540;19;20805;-74
2022/09/15 05:24:13;;;;;;;4.63;1.33;;;13.70;99.90;;;;;;3059610;19;20022;-76
2022/09/15 05:25:14;;;;;;;10.10;1.83;;;13.60;99.90;;;;;;3057534;19;20025;-75
2022/09/15 05:26:20;;;;;;;7.53;1.40;;;13.50;99.90;;;;;;3059463;19;20357;-75
2022/09/15 05:27:24;;;;;;;7.18;1.67;;;14.80;99.90;;;;;;3059493;19;20015;-76
2022/09/15 05:28:26;;;;;;;5.65;1.88;;;13.60;99.90;;;;;;3059334;19;20047;-75
2022/09/15 05:29:30;;;;;;;5.63;1.30;;;13.90;99.90;;;;;;3059931;19;20344;-76
2022/09/15 05:30:31;;;;;;;5.57;1.25;;;13.60;99.90;;;;;;3058302;19;20010;-75
2022/09/15 05:31:35;;;;;;;6.63;1.48;;;13.60;99.90;;;;;;3059265;19;20452;-75
2022/09/15 05:32:37;;;;;;;5.15;1.48;;;13.60;99.90;;;;;;3059326;19;20018;-75
2022/09/15 05:33:41;;;;;;;4.72;1.50;;;13.70;99.90;;;;;;3059066;19;20015;-75
2022/09/15 05:34:44;;;;;;;6.93;1.50;;;13.70;99.90;;;;;;3059429;19;19998;-75
2022/09/15 05:35:50;;;;;;;6.00;1.50;;;13.70;99.90;;;;;;3058282;19;20044;-76
2022/09/15 05:36:54;;;;;;;5.70;1.45;;;13.70;99.90;;;;;;3058793;19;20499;-75
2022/09/15 05:37:55;;;;;;;10.68;1.40;;;13.70;99.90;;;;;;3059522;19;20077;-76
2022/09/15 05:39:00;;;;;;;5.25;1.30;;;13.60;99.90;;;;;;3059772;19;20365;-76
2022/09/15 05:40:05;;;;;;;5.22;1.50;;;14.40;99.90;;;;;;3058339;19;20014;-76
2022/09/15 05:41:10;;;;;;;6.20;1.40;;;13.60;99.90;;;;;;3059365;19;20022;-77